Time;durP1;ratioP1;P1;durP2;ratioP2;P2;SDS_P1;SDS_P2;PMS_P1;PMS_P2;Temp;Humidity;BMP_temperature;BMP_pressure;BME280_temperature;BME280_humidity;BME280_pressure;Samples;Min_cycle;Max_cycle;Signal;HPM_P1;HPM_P2
2023/03/14 00:01:20;;;;;;;4.75;1.25;;;;;;;10.05;94.93;98359.31;4969589;28;20053;-76
2023/03/14 00:03:46;;;;;;;4.70;1.70;;;;;;;10.09;94.55;98353.91;4969193;28;20495;-79
2023/03/14 00:06:14;;;;;;;5.95;2.10;;;;;;;10.17;93.88;98352.69;4970785;28;20061;-76
2023/03/14 00:08:42;;;;;;;2.72;1.15;;;;;;;10.26;93.63;98337.47;4977744;28;20042;-76
2023/03/14 00:11:13;;;;;;;3.05;1.80;;;;;;;10.32;92.84;98318.03;4972609;28;20047;-78
2023/03/14 00:13:40;;;;;;;2.90;1.10;;;;;;;10.39;92.89;98310.78;4971466;28;20109;-77
2023/03/14 00:16:12;;;;;;;4.50;0.95;;;;;;;10.46;91.96;98295.66;4954153;28;20498;-76
2023/03/14 00:18:39;;;;;;;3.60;0.98;;;;;;;10.51;91.61;98291.06;4970725;28;20035;-75
2023/03/14 00:21:08;;;;;;;3.45;0.80;;;;;;;10.53;91.61;98307.53;4969807;28;20053;-79
2023/03/14 00:23:37;;;;;;;3.63;0.80;;;;;;;10.50;91.67;98316.38;4953029;28;20149;-75
2023/03/14 00:26:07;;;;;;;1.67;0.82;;;;;;;10.46;91.86;98304.34;4976950;28;20049;-76
2023/03/14 00:28:33;;;;;;;4.35;0.85;;;;;;;10.42;91.96;98297.56;4946084;28;20482;-76
2023/03/14 00:31:04;;;;;;;1.98;0.70;;;;;;;10.40;92.37;98315.09;4969815;28;20050;-77
2023/03/14 00:33:31;;;;;;;3.67;1.20;;;;;;;10.37;92.69;98325.69;4968623;28;20067;-76
2023/03/14 00:36:05;;;;;;;3.20;1.05;;;;;;;10.43;92.69;98331.50;4968792;28;20046;-79
2023/03/14 00:38:33;;;;;;;5.00;0.93;;;;;;;10.52;92.42;98326.75;4961402;28;20133;-75
2023/03/14 00:41:04;;;;;;;0.73;0.65;;;;;;;10.59;91.85;98315.09;4952345;28;20057;-78
2023/03/14 00:43:31;;;;;;;1.85;0.80;;;;;;;10.62;91.75;98345.50;4965196;28;20070;-78
2023/03/14 00:45:57;;;;;;;3.10;0.80;;;;;;;10.72;91.47;98357.25;4947545;28;20498;-79
2023/03/14 00:48:24;;;;;;;1.08;0.68;;;;;;;10.69;91.63;98345.16;4967947;28;20101;-78
2023/03/14 00:50:51;;;;;;;6.47;1.58;;;;;;;10.67;92.11;98351.38;4950769;28;20178;-82
2023/03/14 00:53:17;;;;;;;2.58;0.82;;;;;;;10.70;91.98;98354.69;4949835;28;20039;-80
2023/03/14 00:55:45;;;;;;;4.45;0.85;;;;;;;10.66;92.35;98352.28;4966427;28;20066;-79
2023/03/14 00:58:14;;;;;;;1.10;0.65;;;;;;;10.65;92.47;98337.50;4966422;28;20506;-79
2023/03/14 01:00:42;;;;;;;2.05;1.10;;;;;;;10.66;92.63;98336.59;4970306;28;20527;-76
2023/03/14 01:03:10;;;;;;;3.63;1.13;;;;;;;10.64;92.50;98320.97;4969144;28;20047;-79
2023/03/14 01:05:37;;;;;;;1.80;0.77;;;;;;;10.62;92.42;98311.50;4970621;28;20058;-81
2023/03/14 01:08:11;;;;;;;3.33;0.63;;;;;;;10.61;92.39;98308.00;4958143;28;20055;-78
2023/03/14 01:10:42;;;;;;;1.20;0.57;;;;;;;10.48;92.84;98288.59;4974381;28;20047;-80
2023/03/14 01:13:09;;;;;;;3.15;1.02;;;;;;;10.38;93.81;98275.09;4972102;28;20355;-76
2023/03/14 01:15:37;;;;;;;2.30;1.13;;;;;;;10.41;93.93;98295.88;4975010;28;20046;-81
2023/03/14 01:18:06;;;;;;;4.13;0.95;;;;;;;10.42;93.50;98289.72;4981462;28;20042;-77
2023/03/14 01:20:33;;;;;;;2.20;0.70;;;;;;;10.42;93.63;98277.47;4982777;28;20039;-81
2023/03/14 01:23:00;;;;;;;2.80;0.65;;;;;;;10.47;93.77;98276.41;4983137;28;20039;-79
2023/03/14 01:25:26;;;;;;;0.70;0.40;;;;;;;10.48;93.08;98272.88;4981782;28;20442;-77
2023/03/14 01:27:52;;;;;;;2.17;0.75;;;;;;;10.48;93.31;98265.03;4983063;28;20042;-81
2023/03/14 01:30:19;;;;;;;1.40;0.63;;;;;;;10.46;93.10;98262.50;4998725;28;20042;-79
2023/03/14 01:32:45;;;;;;;3.35;0.90;;;;;;;10.42;93.18;98269.63;4979620;28;20031;-76
2023/03/14 01:35:12;;;;;;;1.73;0.88;;;;;;;10.38;93.23;98262.84;4979694;28;20530;-75
2023/03/14 01:37:39;;;;;;;1.65;0.60;;;;;;;10.37;93.18;98262.94;4970966;28;20038;-75
2023/03/14 01:40:06;;;;;;;1.50;0.80;;;;;;;10.38;93.51;98270.72;4971825;28;20093;-80
2023/03/14 01:42:33;;;;;;;4.43;1.25;;;;;;;10.46;92.69;98286.03;4976214;28;20129;-78
2023/03/14 01:45:02;;;;;;;5.68;1.15;;;;;;;10.51;92.51;98294.53;4988613;28;20071;-75
2023/03/14 01:47:29;;;;;;;3.63;1.67;;;;;;;10.64;91.42;98309.63;4970511;28;20532;-76
2023/03/14 01:50:12;;;;;;;2.42;0.77;;;;;;;10.78;90.69;98301.13;4972611;28;20077;-74
2023/03/14 01:52:46;;;;;;;4.85;1.65;;;;;;;10.88;89.93;98277.06;4967583;28;20406;-75
2023/03/14 01:55:17;;;;;;;5.20;1.10;;;;;;;10.92;89.79;98246.34;4968962;28;20050;-76
2023/03/14 01:57:51;;;;;;;4.25;1.00;;;;;;;10.96;89.54;98249.69;4971782;28;20078;-75
2023/03/14 02:00:22;;;;;;;4.57;1.10;;;;;;;10.97;89.19;98261.84;4972072;28;20053;-76
2023/03/14 02:02:52;;;;;;;2.30;1.35;;;;;;;10.98;89.15;98267.00;4972327;28;20050;-76
2023/03/14 02:05:22;;;;;;;2.45;0.60;;;;;;;10.94;89.25;98268.09;4971794;28;20063;-77
2023/03/14 02:07:53;;;;;;;2.70;0.90;;;;;;;10.92;89.30;98270.78;4971436;28;20047;-81
2023/03/14 02:10:25;;;;;;;2.95;0.95;;;;;;;10.90;89.66;98269.16;4972751;28;20051;-76
2023/03/14 02:12:54;;;;;;;2.72;0.93;;;;;;;10.87;89.89;98264.91;4969720;28;20046;-76
2023/03/14 02:15:21;;;;;;;1.70;0.70;;;;;;;10.90;89.69;98279.63;4974321;28;20043;-76
2023/03/14 02:17:48;;;;;;;3.03;0.80;;;;;;;10.91;89.38;98283.91;4973488;28;20693;-78
2023/03/14 02:20:39;;;;;;;5.22;1.33;;;;;;;10.93;89.51;98276.84;4977660;28;20125;-79
2023/03/14 02:23:06;;;;;;;2.00;0.70;;;;;;;10.96;89.29;98289.78;4957665;28;20117;-78
2023/03/14 02:26:07;;;;;;;1.20;1.00;;;;;;;10.96;89.60;98297.63;4971407;28;20051;-75
2023/03/14 02:28:33;;;;;;;2.42;0.55;;;;;;;10.95;89.76;98282.88;4979011;28;20490;-76
2023/03/14 02:31:00;;;;;;;1.80;0.55;;;;;;;10.92;89.92;98277.78;4976936;28;20035;-77
2023/03/14 02:33:27;;;;;;;1.50;0.73;;;;;;;10.88;90.31;98268.38;4964300;28;20043;-77
2023/03/14 02:36:00;;;;;;;1.08;0.30;;;;;;;10.87;90.22;98267.53;4969652;28;20051;-77
2023/03/14 02:38:34;;;;;;;2.25;0.80;;;;;;;10.81;90.45;98270.44;4979276;28;20043;-77
2023/03/14 02:41:01;;;;;;;4.43;1.00;;;;;;;10.86;90.05;98270.22;4971825;28;20038;-76
2023/03/14 02:43:27;;;;;;;3.83;1.10;;;;;;;10.85;90.13;98266.75;4968672;28;20110;-77
2023/03/14 02:45:55;;;;;;;1.67;0.70;;;;;;;10.86;89.53;98249.25;4987816;28;20043;-77
2023/03/14 02:48:24;;;;;;;2.85;1.20;;;;;;;10.86;89.46;98249.25;4970798;28;20093;-74
2023/03/14 02:50:55;;;;;;;3.13;0.98;;;;;;;10.83;89.23;98247.66;4955178;28;20053;-75
2023/03/14 02:53:30;;;;;;;1.13;0.85;;;;;;;10.79;89.52;98248.72;4968606;28;20054;-75
2023/03/14 02:55:56;;;;;;;3.13;1.42;;;;;;;10.71;89.75;98243.84;4968385;28;20035;-78
2023/03/14 02:58:23;;;;;;;1.65;0.45;;;;;;;10.70;89.49;98225.63;4953212;28;20051;-78
2023/03/14 03:00:49;;;;;;;1.10;0.85;;;;;;;10.73;89.28;98252.50;4957820;28;20043;-77
2023/03/14 03:03:17;;;;;;;2.88;0.85;;;;;;;10.76;89.04;98248.88;4969898;28;20043;-77
2023/03/14 03:05:44;;;;;;;3.25;0.50;;;;;;;10.75;89.12;98239.34;4968357;28;20043;-78
2023/03/14 03:08:11;;;;;;;2.83;1.23;;;;;;;10.75;88.77;98234.09;4968443;28;20206;-76
2023/03/14 03:10:37;;;;;;;0.60;0.52;;;;;;;10.74;88.73;98245.47;4970859;28;20047;-77
2023/03/14 03:13:04;;;;;;;1.67;0.55;;;;;;;10.71;88.94;98236.00;4956548;28;20051;-76
2023/03/14 03:15:31;;;;;;;3.33;0.80;;;;;;;10.69;88.82;98240.47;4953854;28;20110;-82
2023/03/14 03:17:57;;;;;;;3.45;0.80;;;;;;;10.69;88.96;98237.00;4966962;28;20188;-77
2023/03/14 03:20:24;;;;;;;2.63;0.60;;;;;;;10.69;89.09;98232.63;4963080;28;20129;-78
2023/03/14 03:22:50;;;;;;;4.15;0.85;;;;;;;10.71;88.85;98216.84;4983211;28;20047;-75
2023/03/14 03:25:17;;;;;;;5.05;1.25;;;;;;;10.72;88.49;98226.41;4967536;28;20042;-80
2023/03/14 03:27:43;;;;;;;1.40;0.45;;;;;;;10.70;88.97;98223.00;4963511;28;20043;-76
2023/03/14 03:30:11;;;;;;;5.75;1.23;;;;;;;10.67;88.65;98220.53;4961443;28;20485;-76
2023/03/14 03:32:37;;;;;;;1.20;0.65;;;;;;;10.69;88.28;98211.69;4962942;28;20054;-76
2023/03/14 03:35:05;;;;;;;2.38;0.70;;;;;;;10.68;88.51;98223.09;4965646;28;20054;-77
2023/03/14 03:37:33;;;;;;;2.40;0.75;;;;;;;10.69;87.94;98211.69;4963043;28;20548;-79
2023/03/14 03:40:00;;;;;;;1.02;0.52;;;;;;;10.70;87.82;98212.53;4965308;28;20109;-74
2023/03/14 03:42:30;;;;;;;5.07;0.80;;;;;;;10.70;88.27;98213.41;4963223;28;20046;-78
2023/03/14 03:44:56;;;;;;;2.85;0.70;;;;;;;10.70;88.83;98223.88;4967749;28;20607;-78
2023/03/14 03:47:23;;;;;;;1.45;0.40;;;;;;;10.63;90.87;98227.69;4965000;28;20046;-76
2023/03/14 03:49:49;;;;;;;2.85;0.77;;;;;;;10.37;98.50;98244.63;4961499;28;20126;-75
2023/03/14 03:52:16;;;;;;;3.65;0.82;;;;;;;9.84;100.00;98247.00;4951525;28;20482;-77
2023/03/14 03:54:42;;;;;;;1.70;0.47;;;;;;;9.33;100.00;98250.94;4968647;28;20055;-78
2023/03/14 03:57:12;;;;;;;2.95;0.75;;;;;;;8.97;100.00;98246.34;4963738;28;20054;-77
2023/03/14 03:59:40;;;;;;;1.88;0.50;;;;;;;8.82;100.00;98234.78;4968740;28;20038;-76
2023/03/14 04:02:06;;;;;;;4.70;1.08;;;;;;;8.75;100.00;98236.81;4968498;28;20076;-76
2023/03/14 04:04:33;;;;;;;2.33;1.25;;;;;;;8.67;100.00;98229.28;4967344;28;20105;-75
2023/03/14 04:06:59;;;;;;;1.08;0.40;;;;;;;8.64;100.00;98241.59;4969212;28;20043;-77
2023/03/14 04:09:26;;;;;;;5.15;0.70;;;;;;;8.63;100.00;98226.84;4967854;28;20047;-76
2023/03/14 04:11:52;;;;;;;1.70;0.20;;;;;;;8.57;100.00;98230.56;4967851;28;20047;-77
2023/03/14 04:14:19;;;;;;;0.30;0.30;;;;;;;8.49;100.00;98233.47;4952137;28;20046;-76
2023/03/14 04:16:45;;;;;;;1.48;0.28;;;;;;;8.43;100.00;98229.31;4965421;28;20054;-78
2023/03/14 04:19:21;;;;;;;2.85;0.22;;;;;;;8.46;100.00;98237.94;4956021;28;20451;-76
2023/03/14 04:21:48;;;;;;;0.57;0.40;;;;;;;8.31;100.00;98235.00;4969023;28;20061;-76
2023/03/14 04:24:14;;;;;;;0.35;0.30;;;;;;;8.19;100.00;98236.31;4968471;28;20489;-80
2023/03/14 04:26:41;;;;;;;1.95;0.43;;;;;;;8.05;100.00;98236.00;4968069;28;20027;-76
2023/03/14 04:29:07;;;;;;;0.43;0.20;;;;;;;7.98;100.00;98229.31;4952624;28;20541;-75
2023/03/14 04:31:34;;;;;;;3.63;0.30;;;;;;;7.92;100.00;98230.38;4953438;28;20054;-75
2023/03/14 04:34:02;;;;;;;2.65;0.50;;;;;;;7.96;100.00;98237.19;4966648;28;20047;-76
2023/03/14 04:36:28;;;;;;;0.30;0.30;;;;;;;7.98;100.00;98224.97;4969656;28;20122;-77
2023/03/14 04:38:55;;;;;;;0.82;0.73;;;;;;;8.00;100.00;98217.91;4967200;28;20035;-78
2023/03/14 04:41:21;;;;;;;1.95;0.38;;;;;;;7.98;100.00;98229.31;4973306;28;20119;-76
2023/03/14 04:43:48;;;;;;;0.30;0.10;;;;;;;8.07;100.00;98218.53;4970039;28;20075;-77
2023/03/14 04:46:14;;;;;;;0.50;0.20;;;;;;;7.97;100.00;98212.84;4986090;28;20473;-76
2023/03/14 04:48:41;;;;;;;4.22;0.40;;;;;;;7.94;100.00;98212.97;4971204;28;20047;-74
2023/03/14 04:51:08;;;;;;;2.38;0.52;;;;;;;7.94;100.00;98207.75;4955464;28;20047;-75
2023/03/14 04:53:35;;;;;;;1.23;0.65;;;;;;;7.92;100.00;98213.00;4969448;28;20046;-76
2023/03/14 04:56:02;;;;;;;3.78;0.30;;;;;;;7.93;100.00;98200.84;4968295;28;20068;-74
2023/03/14 04:58:29;;;;;;;0.30;0.20;;;;;;;7.98;100.00;98200.66;4964989;28;20042;-75
2023/03/14 05:00:55;;;;;;;1.05;0.20;;;;;;;7.90;100.00;98193.13;4972138;28;20047;-75
2023/03/14 05:03:22;;;;;;;0.38;0.20;;;;;;;7.89;100.00;98191.44;4948461;28;20051;-75
2023/03/14 05:05:48;;;;;;;1.15;0.20;;;;;;;7.89;100.00;98197.50;4969972;28;20035;-76
2023/03/14 05:08:15;;;;;;;2.38;0.50;;;;;;;7.80;100.00;98182.22;4969388;28;20043;-75
2023/03/14 05:10:41;;;;;;;2.97;0.30;;;;;;;7.73;100.00;98173.78;4967318;28;20043;-73
2023/03/14 05:13:08;;;;;;;0.60;0.30;;;;;;;7.72;100.00;98174.69;4973139;28;20077;-75
2023/03/14 05:15:34;;;;;;;0.50;0.35;;;;;;;7.65;100.00;98169.75;4953860;28;20049;-76
2023/03/14 05:18:01;;;;;;;0.52;0.30;;;;;;;7.69;100.00;98176.53;4964923;28;20039;-74
2023/03/14 05:20:27;;;;;;;0.60;0.20;;;;;;;7.57;100.00;98178.72;4968023;28;20043;-75
2023/03/14 05:22:54;;;;;;;2.42;0.50;;;;;;;7.51;100.00;98165.91;4965765;28;20055;-76
2023/03/14 05:25:20;;;;;;;2.92;0.32;;;;;;;7.50;100.00;98179.00;4965300;28;20049;-76
2023/03/14 05:27:47;;;;;;;1.90;0.30;;;;;;;7.52;100.00;98174.56;4968541;28;20054;-75
2023/03/14 05:30:13;;;;;;;2.58;0.20;;;;;;;7.49;100.00;98178.13;4965449;28;20069;-77
2023/03/14 05:32:40;;;;;;;2.15;0.40;;;;;;;7.52;100.00;98172.81;4962847;28;20054;-76
2023/03/14 05:35:07;;;;;;;2.80;0.38;;;;;;;7.49;100.00;98174.69;4961462;28;20070;-80
2023/03/14 05:37:34;;;;;;;2.83;0.70;;;;;;;7.59;100.00;98166.47;4967273;28;20117;-76
2023/03/14 05:40:00;;;;;;;3.90;1.08;;;;;;;7.65;100.00;98164.53;4969628;28;20065;-76
2023/03/14 05:42:30;;;;;;;1.75;0.57;;;;;;;7.76;100.00;98172.81;4965094;28;20042;-75
2023/03/14 05:44:56;;;;;;;2.47;0.50;;;;;;;7.81;100.00;98176.09;4966479;28;20126;-74
2023/03/14 05:47:23;;;;;;;0.63;0.35;;;;;;;7.84;100.00;98175.97;4967279;28;20042;-76
2023/03/14 05:49:49;;;;;;;6.53;1.10;;;;;;;7.94;100.00;98179.94;4968467;28;20050;-75
2023/03/14 05:52:16;;;;;;;1.23;0.52;;;;;;;7.99;100.00;98181.50;4954066;28;20434;-78
2023/03/14 05:54:42;;;;;;;4.78;1.13;;;;;;;7.97;100.00;98181.56;4970243;28;20145;-74
2023/03/14 05:57:09;;;;;;;4.70;1.40;;;;;;;8.00;100.00;98171.03;4971133;28;20062;-74
2023/03/14 05:59:35;;;;;;;3.25;1.02;;;;;;;8.04;100.00;98175.19;4969970;28;20039;-75
2023/03/14 06:02:02;;;;;;;3.83;0.75;;;;;;;8.00;100.00;98168.41;4952321;28;20047;-76
2023/03/14 06:04:31;;;;;;;5.18;0.73;;;;;;;8.03;100.00;98172.66;4970795;28;20059;-77
2023/03/14 06:06:57;;;;;;;2.45;1.35;;;;;;;8.00;100.00;98164.97;4968876;28;20058;-75
2023/03/14 06:09:24;;;;;;;6.30;1.02;;;;;;;8.08;100.00;98161.16;4967671;28;20058;-78
2023/03/14 06:11:51;;;;;;;1.60;0.90;;;;;;;8.16;100.00;98142.63;4963418;28;20057;-79
2023/03/14 06:14:18;;;;;;;5.63;1.02;;;;;;;8.26;100.00;98166.56;4968124;28;20058;-78
2023/03/14 06:16:45;;;;;;;3.20;0.90;;;;;;;8.37;100.00;98160.91;4966658;28;20051;-77
2023/03/14 06:19:11;;;;;;;5.20;0.82;;;;;;;8.46;100.00;98159.72;4951348;28;20062;-77
2023/03/14 06:21:38;;;;;;;3.38;0.98;;;;;;;8.61;100.00;98169.53;4970388;28;20073;-76
2023/03/14 06:24:04;;;;;;;4.45;1.40;;;;;;;8.65;100.00;98173.72;4950022;28;20053;-80
2023/03/14 06:26:31;;;;;;;1.88;1.15;;;;;;;8.80;100.00;98167.03;4969384;28;20500;-78
2023/03/14 06:29:01;;;;;;;4.95;0.80;;;;;;;8.83;100.00;98169.50;4966920;28;20063;-74
2023/03/14 06:31:27;;;;;;;6.28;0.90;;;;;;;8.89;100.00;98168.38;4969107;28;20134;-75
2023/03/14 06:33:54;;;;;;;5.07;0.57;;;;;;;8.90;100.00;98181.38;4966663;28;20049;-79
2023/03/14 06:36:20;;;;;;;1.48;0.43;;;;;;;8.94;100.00;98182.09;4968012;28;20038;-76
2023/03/14 06:38:47;;;;;;;5.75;0.30;;;;;;;9.01;100.00;98191.38;4966884;28;20042;-78
2023/03/14 06:41:17;;;;;;;4.60;0.57;;;;;;;9.01;100.00;98175.72;4966536;28;20077;-74
2023/03/14 06:43:43;;;;;;;1.25;0.73;;;;;;;9.08;100.00;98169.28;4970234;28;20517;-75
2023/03/14 06:46:10;;;;;;;5.30;1.73;;;;;;;9.20;100.00;98173.13;4968624;28;20046;-79
2023/03/14 06:48:37;;;;;;;3.28;0.43;;;;;;;9.25;99.46;98172.94;4952559;28;20491;-75
2023/03/14 06:51:03;;;;;;;2.40;0.52;;;;;;;9.26;99.04;98167.66;4968468;28;20043;-75
2023/03/14 06:53:33;;;;;;;2.17;0.32;;;;;;;9.32;97.44;98177.00;4952475;28;20043;-78
2023/03/14 06:55:59;;;;;;;2.50;1.48;;;;;;;9.42;96.28;98182.66;4968553;28;20497;-74
2023/03/14 06:58:26;;;;;;;2.25;0.40;;;;;;;9.43;95.77;98177.38;4969850;28;20046;-76
2023/03/14 07:00:54;;;;;;;1.67;0.40;;;;;;;9.52;93.81;98180.50;4956228;28;20126;-76
2023/03/14 07:03:21;;;;;;;1.67;0.20;;;;;;;9.66;92.30;98179.88;4969404;28;20054;-77
2023/03/14 07:05:47;;;;;;;1.17;0.20;;;;;;;9.68;92.71;98184.09;4967040;28;20153;-74
2023/03/14 07:08:15;;;;;;;2.05;0.28;;;;;;;9.67;92.46;98182.41;4971957;28;20061;-78
2023/03/14 07:10:42;;;;;;;7.95;0.35;;;;;;;9.62;93.51;98197.47;4969716;28;20049;-76
2023/03/14 07:13:08;;;;;;;0.30;0.20;;;;;;;9.56;94.28;98188.13;4966972;28;20065;-77
2023/03/14 07:15:35;;;;;;;1.65;0.32;;;;;;;9.56;94.45;98180.28;4965551;28;20401;-75
2023/03/14 07:18:01;;;;;;;0.63;0.30;;;;;;;9.55;94.56;98181.19;4968509;28;20054;-76
2023/03/14 07:20:32;;;;;;;0.57;0.20;;;;;;;9.54;94.42;98189.09;4968176;28;20070;-75
2023/03/14 07:22:59;;;;;;;0.40;0.15;;;;;;;9.57;94.00;98175.94;4950551;28;20050;-76
2023/03/14 07:25:27;;;;;;;0.28;0.20;;;;;;;9.64;94.10;98200.00;4968360;28;20474;-75
2023/03/14 07:27:53;;;;;;;10.13;3.08;;;;;;;9.68;93.65;98186.72;4969238;28;20061;-75
2023/03/14 07:30:20;;;;;;;0.32;0.10;;;;;;;9.73;92.89;98178.69;4969901;28;20137;-76
2023/03/14 07:32:46;;;;;;;0.47;0.20;;;;;;;9.74;92.98;98196.06;4965977;28;20429;-78
2023/03/14 07:35:15;;;;;;;1.30;0.10;;;;;;;9.76;92.57;98204.66;4964259;28;20121;-76
2023/03/14 07:37:41;;;;;;;2.40;0.30;;;;;;;9.78;92.78;98195.00;4967673;28;20062;-75
2023/03/14 07:40:10;;;;;;;2.83;0.30;;;;;;;9.76;92.75;98208.16;4970466;28;20047;-77
2023/03/14 07:42:36;;;;;;;0.30;0.10;;;;;;;9.79;93.41;98201.94;4970164;28;20039;-76
2023/03/14 07:45:03;;;;;;;2.40;0.40;;;;;;;9.81;93.36;98209.69;4965626;28;20062;-75
2023/03/14 07:47:30;;;;;;;1.65;0.10;;;;;;;9.79;94.49;98212.38;4968050;28;20615;-78
2023/03/14 07:49:56;;;;;;;1.23;0.40;;;;;;;9.72;95.48;98208.34;4965861;28;20737;-78
2023/03/14 07:52:23;;;;;;;0.75;0.17;;;;;;;9.66;96.85;98204.25;4966210;28;20038;-75
2023/03/14 07:54:49;;;;;;;1.00;0.10;;;;;;;9.56;98.14;98200.34;4947006;28;20502;-76
2023/03/14 07:57:16;;;;;;;3.10;0.30;;;;;;;9.46;99.97;98207.72;4961704;28;20113;-79
2023/03/14 07:59:43;;;;;;;0.00;0.00;;;;;;;9.39;100.00;98214.97;4948010;28;21703;-77
2023/03/14 08:02:12;;;;;;;1.10;0.10;;;;;;;9.39;100.00;98214.13;4949201;28;20105;-75
2023/03/14 08:04:40;;;;;;;0.00;0.00;;;;;;;9.34;100.00;98210.88;4964214;28;20070;-76
2023/03/14 08:07:07;;;;;;;0.10;0.10;;;;;;;9.31;100.00;98200.53;4964124;28;20130;-75
2023/03/14 08:09:34;;;;;;;3.03;0.28;;;;;;;9.29;100.00;98205.84;4965512;28;20046;-78
2023/03/14 08:12:01;;;;;;;1.98;0.10;;;;;;;9.37;100.00;98208.13;4963376;28;20086;-77
2023/03/14 08:14:28;;;;;;;1.08;0.00;;;;;;;9.46;100.00;98199.88;4966881;28;20047;-77
2023/03/14 08:16:55;;;;;;;0.20;0.10;;;;;;;9.47;100.00;98203.38;4966180;28;20050;-78
2023/03/14 08:19:22;;;;;;;1.88;0.40;;;;;;;9.52;100.00;98217.06;4968156;28;20045;-75
2023/03/14 08:21:48;;;;;;;0.10;0.10;;;;;;;9.57;99.87;98202.88;4967796;28;20049;-75
2023/03/14 08:24:15;;;;;;;0.10;0.10;;;;;;;9.64;98.88;98218.28;4968155;28;20050;-75
2023/03/14 08:26:41;;;;;;;1.85;0.75;;;;;;;9.64;98.45;98202.63;4968030;28;20045;-76
2023/03/14 08:29:08;;;;;;;0.38;0.10;;;;;;;9.67;97.96;98207.69;4966615;28;20082;-77
2023/03/14 08:31:36;;;;;;;1.55;0.10;;;;;;;9.68;98.97;98207.63;4953637;28;20157;-76
2023/03/14 08:34:04;;;;;;;0.03;0.00;;;;;;;10.17;97.34;98201.94;4965341;28;20649;-77
2023/03/14 08:36:30;;;;;;;0.10;0.10;;;;;;;10.77;93.22;98203.47;4967812;28;20046;-77
2023/03/14 08:38:57;;;;;;;0.85;0.22;;;;;;;10.91;92.42;98194.94;4970023;28;20127;-76
2023/03/14 08:41:24;;;;;;;1.23;0.10;;;;;;;10.76;92.17;98209.63;4966158;28;20054;-78
2023/03/14 08:43:51;;;;;;;1.08;0.10;;;;;;;10.46;93.97;98202.34;4967602;28;20129;-79
2023/03/14 08:46:21;;;;;;;0.10;0.08;;;;;;;10.19;95.78;98202.69;4968536;28;20039;-77
2023/03/14 08:48:48;;;;;;;2.50;0.15;;;;;;;10.19;96.77;98205.31;4952772;28;20130;-77
2023/03/14 08:51:15;;;;;;;0.20;0.20;;;;;;;10.22;96.62;98204.31;4967563;28;20043;-81
2023/03/14 08:53:42;;;;;;;0.17;0.17;;;;;;;10.13;97.15;98205.59;4952703;28;20059;-78
2023/03/14 08:56:10;;;;;;;0.82;0.10;;;;;;;9.90;98.78;98207.50;4966329;28;20079;-76
2023/03/14 08:58:41;;;;;;;0.10;0.10;;;;;;;9.91;99.77;98210.97;4966563;28;20077;-79
2023/03/14 09:01:10;;;;;;;0.52;0.10;;;;;;;9.89;100.00;98205.78;4966680;28;20137;-79
2023/03/14 09:03:36;;;;;;;0.00;0.00;;;;;;;9.95;100.00;98212.53;4967201;28;20079;-74
2023/03/14 09:06:05;;;;;;;0.68;0.20;;;;;;;9.99;100.00;98210.63;4967954;28;20054;-78
2023/03/14 09:08:33;;;;;;;0.10;0.10;;;;;;;9.85;100.00;98213.84;4965630;28;20039;-77
2023/03/14 09:10:59;;;;;;;0.57;0.57;;;;;;;9.76;100.00;98212.50;4967054;28;20653;-77
2023/03/14 09:13:26;;;;;;;0.73;0.20;;;;;;;9.79;100.00;98207.16;4968131;28;20539;-77
2023/03/14 09:15:54;;;;;;;0.20;0.00;;;;;;;9.79;100.00;98203.69;4967106;28;20344;-77
2023/03/14 09:18:22;;;;;;;2.30;0.10;;;;;;;9.85;100.00;98206.84;4965829;28;20607;-74
2023/03/14 09:20:49;;;;;;;0.10;0.10;;;;;;;9.92;100.00;98205.69;4967048;28;20102;-75
2023/03/14 09:23:16;;;;;;;0.85;0.32;;;;;;;9.95;100.00;98209.91;4960571;28;20075;-74
2023/03/14 09:25:42;;;;;;;0.85;0.75;;;;;;;10.01;100.00;98214.88;4967017;28;20066;-78
2023/03/14 09:28:09;;;;;;;0.47;0.40;;;;;;;10.13;100.00;98209.97;4954945;28;20393;-75
2023/03/14 09:30:35;;;;;;;1.45;0.50;;;;;;;10.43;100.00;98220.81;4968443;28;20046;-81
2023/03/14 09:33:02;;;;;;;0.45;0.30;;;;;;;10.80;100.00;98213.78;4964477;28;20057;-79
2023/03/14 09:35:28;;;;;;;0.55;0.15;;;;;;;11.05;99.03;98210.78;4967902;28;20043;-76
2023/03/14 09:37:55;;;;;;;3.08;0.30;;;;;;;11.07;96.43;98205.50;4954598;28;20094;-78
2023/03/14 09:40:23;;;;;;;1.13;0.25;;;;;;;10.96;97.21;98211.25;4971275;28;20078;-75
2023/03/14 09:42:52;;;;;;;1.55;0.10;;;;;;;10.92;98.01;98209.72;4970858;28;20079;-76
2023/03/14 09:45:36;;;;;;;0.47;0.20;;;;;;;10.96;98.47;98205.19;4985150;28;20043;-75
2023/03/14 09:48:05;;;;;;;0.20;0.20;;;;;;;11.29;96.80;98205.25;4971530;28;20047;-75
2023/03/14 09:50:44;;;;;;;1.50;0.10;;;;;;;11.41;95.36;98203.78;4963574;28;20046;-76
2023/03/14 09:53:18;;;;;;;0.45;0.45;;;;;;;11.55;94.73;98206.53;4967924;28;20039;-74
2023/03/14 09:55:46;;;;;;;0.40;0.20;;;;;;;12.16;91.57;98195.47;4966157;28;20113;-76
2023/03/14 09:58:21;;;;;;;2.35;0.20;;;;;;;12.61;87.38;98206.13;4965712;28;20117;-78
2023/03/14 10:00:48;;;;;;;0.10;0.10;;;;;;;12.23;89.30;98207.34;4968494;28;20213;-77
2023/03/14 10:03:14;;;;;;;0.70;0.20;;;;;;;12.06;90.17;98203.84;4967103;28;20048;-75
2023/03/14 10:05:42;;;;;;;0.10;0.10;;;;;;;11.96;90.69;98194.78;4964379;28;20541;-75
2023/03/14 10:08:13;;;;;;;1.50;0.20;;;;;;;12.34;90.35;98193.63;4970364;28;20482;-74
2023/03/14 10:10:41;;;;;;;0.52;0.20;;;;;;;12.71;86.13;98192.38;4969237;28;20397;-78
2023/03/14 10:13:10;;;;;;;1.30;0.20;;;;;;;12.76;84.95;98199.97;4965781;28;20133;-76
2023/03/14 10:15:40;;;;;;;0.30;0.30;;;;;;;12.90;83.79;98188.69;4964209;28;20047;-77
2023/03/14 10:18:13;;;;;;;0.73;0.63;;;;;;;12.82;84.42;98193.56;4962690;28;20866;-74
2023/03/14 10:21:19;;;;;;;0.43;0.20;;;;;;;12.88;84.05;98187.91;4966820;28;20130;-77
2023/03/14 10:23:48;;;;;;;0.65;0.40;;;;;;;13.18;82.84;98187.06;4959404;28;20128;-83
2023/03/14 10:26:19;;;;;;;0.10;0.10;;;;;;;13.14;82.38;98188.19;4950235;28;20061;-76
2023/03/14 10:28:52;;;;;;;2.55;0.43;;;;;;;13.08;82.51;98179.72;4961712;28;20050;-77
2023/03/14 10:31:26;;;;;;;1.75;0.30;;;;;;;12.80;83.40;98198.91;4965360;28;20125;-77
2023/03/14 10:34:06;;;;;;;0.20;0.20;;;;;;;12.36;85.88;98202.25;4963947;28;20050;-80
2023/03/14 10:36:43;;;;;;;0.28;0.28;;;;;;;12.04;87.66;98200.44;4948684;28;20058;-79
2023/03/14 10:39:46;;;;;;;0.28;0.25;;;;;;;12.04;88.10;98207.47;4965770;28;20446;-79
2023/03/14 10:42:21;;;;;;;0.80;0.17;;;;;;;12.01;88.69;98208.50;4966939;28;20584;-79
2023/03/14 10:44:54;;;;;;;0.77;0.45;;;;;;;12.05;88.52;98199.53;4953440;28;20728;-76
2023/03/14 10:47:25;;;;;;;0.93;0.40;;;;;;;11.88;89.40;98208.28;4966580;28;20055;-74
2023/03/14 10:49:52;;;;;;;0.50;0.30;;;;;;;11.78;89.93;98198.38;4968974;28;20042;-75
2023/03/14 10:52:31;;;;;;;0.35;0.30;;;;;;;11.72;89.95;98200.38;4951853;28;20043;-74
2023/03/14 10:55:01;;;;;;;0.57;0.57;;;;;;;11.54;90.86;98201.38;4970724;28;20985;-76
2023/03/14 10:57:28;;;;;;;0.50;0.50;;;;;;;11.42;91.23;98206.31;4952796;28;20046;-75
2023/03/14 10:59:57;;;;;;;1.60;0.60;;;;;;;11.34;91.79;98203.25;4965553;28;20162;-74
2023/03/14 11:02:59;;;;;;;0.82;0.82;;;;;;;11.33;92.23;98208.53;4966698;28;20343;-80
2023/03/14 11:05:42;;;;;;;0.85;0.63;;;;;;;11.18;93.54;98205.78;4970825;28;20442;-75
2023/03/14 11:08:32;;;;;;;0.43;0.43;;;;;;;11.12;93.38;98203.50;4968842;28;20050;-76
2023/03/14 11:11:21;;;;;;;0.70;0.70;;;;;;;11.11;93.41;98206.16;4965118;28;20066;-76
2023/03/14 11:14:21;;;;;;;0.98;0.70;;;;;;;11.06;94.18;98209.03;4967385;28;20125;-77
2023/03/14 11:16:58;;;;;;;1.17;1.08;;;;;;;10.98;96.83;98216.44;4967901;28;20038;-76
2023/03/14 11:20:09;;;;;;;1.42;0.93;;;;;;;10.85;99.93;98255.44;4967116;28;20097;-74
2023/03/14 11:22:51;;;;;;;0.77;0.43;;;;;;;10.04;100.00;98300.97;4948150;28;20138;-75
2023/03/14 11:25:58;;;;;;;1.75;0.30;;;;;;;9.00;100.00;98324.53;4953178;28;20066;-78
2023/03/14 11:28:40;;;;;;;0.15;0.10;;;;;;;8.40;100.00;98354.56;4967633;28;20091;-74
2023/03/14 11:31:28;;;;;;;0.10;0.10;;;;;;;7.85;100.00;98377.38;4963967;28;20051;-74
2023/03/14 11:34:28;;;;;;;0.38;0.38;;;;;;;7.40;100.00;98391.88;4968717;28;20066;-75
2023/03/14 11:37:35;;;;;;;0.65;0.40;;;;;;;7.01;100.00;98398.28;4967028;28;20054;-78
2023/03/14 11:40:14;;;;;;;0.35;0.35;;;;;;;6.82;100.00;98410.16;4968010;28;20058;-77
2023/03/14 11:42:49;;;;;;;0.93;0.70;;;;;;;6.70;100.00;98419.16;4963555;28;20052;-77
2023/03/14 11:45:33;;;;;;;2.08;0.55;;;;;;;6.67;100.00;98427.91;4948764;28;20208;-75